Time;durP1;ratioP1;P1;durP2;ratioP2;P2;SDS_P1;SDS_P2;PMS_P1;PMS_P2;Temp;Humidity;BMP_temperature;BMP_pressure;BME280_temperature;BME280_humidity;BME280_pressure;Samples;Min_cycle;Max_cycle;Signal;HPM_P1;HPM_P2
2021/05/23 00:00:52;;;;;;;5.65;1.42;;;;;;;9.97;60.58;99847.81;4404213;32;20142;-81
2021/05/23 00:03:18;;;;;;;8.48;1.30;;;;;;;9.93;60.36;99855.59;4405723;32;20472;-80
2021/05/23 00:05:45;;;;;;;6.80;1.70;;;;;;;10.00;60.08;99846.91;4398809;32;20090;-81
2021/05/23 00:08:14;;;;;;;4.53;1.52;;;;;;;10.00;60.20;99858.13;4401314;32;20113;-81
2021/05/23 00:11:01;;;;;;;5.53;1.52;;;;;;;9.97;60.42;99857.03;4404580;32;20046;-80
2021/05/23 00:13:32;;;;;;;9.75;2.58;;;;;;;9.92;60.75;99843.56;4408605;32;20030;-81
2021/05/23 00:18:40;;;;;;;7.70;3.10;;;;;;;10.24;60.24;99848.06;3953339;32;15790468;-79
2021/05/23 00:21:07;;;;;;;5.43;1.50;;;;;;;10.24;60.24;99848.06;4433827;32;20419;-80
2021/05/23 00:23:33;;;;;;;5.35;1.60;;;;;;;9.76;61.18;99840.91;4432833;32;20045;-78
2021/05/23 00:26:00;;;;;;;5.90;1.52;;;;;;;9.66;61.61;99835.66;4432212;32;20077;-79
2021/05/23 00:28:28;;;;;;;8.30;1.35;;;;;;;9.75;61.55;99839.34;4432585;32;20398;-79
2021/05/23 00:30:54;;;;;;;6.62;1.67;;;;;;;9.61;62.02;99836.28;4433541;32;20081;-80
2021/05/23 00:33:21;;;;;;;5.35;1.65;;;;;;;9.53;62.26;99832.91;4430323;32;20060;-79
2021/05/23 00:35:47;;;;;;;9.10;1.65;;;;;;;9.52;62.38;99838.97;4432933;32;20026;-79
2021/05/23 00:38:13;;;;;;;4.97;1.42;;;;;;;9.56;62.18;99839.63;4432279;32;20385;-79
2021/05/23 00:40:39;;;;;;;6.32;1.60;;;;;;;9.52;62.45;99845.41;4428191;32;20125;-79
2021/05/23 00:43:11;;;;;;;4.65;1.00;;;;;;;9.53;62.52;99840.53;4416098;32;20694;-80
2021/05/23 00:45:37;;;;;;;6.55;1.23;;;;;;;9.52;62.85;99838.97;4429616;32;20018;-79
2021/05/23 00:48:04;;;;;;;6.47;1.80;;;;;;;9.36;63.37;99834.28;4436157;32;20807;-79
2021/05/23 00:50:30;;;;;;;10.73;2.00;;;;;;;9.39;63.25;99838.22;4431653;32;20383;-79
2021/05/23 00:52:58;;;;;;;6.87;1.42;;;;;;;9.39;63.21;99838.22;4430715;32;20807;-80
2021/05/23 00:55:24;;;;;;;8.50;2.03;;;;;;;9.41;63.25;99830.12;4430285;32;20034;-79
2021/05/23 00:57:50;;;;;;;6.95;1.60;;;;;;;9.34;63.70;99844.41;4430033;32;20072;-80
2021/05/23 01:06:08;;;;;;;3.92;1.75;;;;;;;9.97;62.64;99854.22;4002301;31;15014656;-80
2021/05/23 01:08:38;;;;;;;6.18;2.08;;;;;;;9.97;62.64;99854.22;4443735;32;20063;-79
2021/05/23 01:16:25;;;;;;;6.75;1.85;;;;;;;9.97;62.61;99839.38;4000135;31;15015633;-78
2021/05/23 01:19:03;;;;;;;7.03;2.37;;;;;;;9.97;62.61;99839.38;4446747;32;20029;-79
2021/05/23 01:21:35;;;;;;;5.30;1.77;;;;;;;9.53;63.33;99829.31;4447802;32;20422;-79
2021/05/23 01:24:04;;;;;;;6.25;2.08;;;;;;;9.56;63.43;99837.62;4448202;32;20029;-79
2021/05/23 01:26:34;;;;;;;9.05;2.47;;;;;;;9.54;63.55;99823.25;4451870;32;21490;-79
2021/05/23 01:29:05;;;;;;;6.57;2.37;;;;;;;9.60;63.56;99827.03;4448620;32;20079;-79
2021/05/23 01:31:32;;;;;;;7.47;2.42;;;;;;;9.63;63.73;99814.09;4449257;32;20057;-78
2021/05/23 01:33:59;;;;;;;8.90;2.47;;;;;;;9.61;63.77;99819.41;4447399;32;20461;-79
2021/05/23 01:36:30;;;;;;;10.32;2.85;;;;;;;9.59;63.77;99816.25;4449631;32;21174;-79
2021/05/23 01:38:57;;;;;;;7.75;2.83;;;;;;;9.63;63.79;99817.72;4433216;32;20071;-79
2021/05/23 01:41:23;;;;;;;10.55;3.22;;;;;;;9.62;63.90;99815.34;4447748;32;20034;-79
2021/05/23 01:43:49;;;;;;;6.00;3.08;;;;;;;9.65;63.84;99809.63;4448042;32;20174;-79
2021/05/23 01:46:16;;;;;;;7.85;3.60;;;;;;;9.69;63.68;99810.28;4447956;32;20053;-79
2021/05/23 01:48:43;;;;;;;11.38;3.37;;;;;;;9.74;63.66;99820.16;4452247;32;20077;-79
2021/05/23 01:51:09;;;;;;;8.50;2.85;;;;;;;9.69;63.68;99806.66;4451851;32;20433;-79
2021/05/23 01:53:36;;;;;;;10.93;4.22;;;;;;;9.76;63.75;99815.63;4449102;32;20081;-79
2021/05/23 01:56:04;;;;;;;8.43;3.40;;;;;;;9.77;63.76;99813.62;4444923;32;20034;-79
2021/05/23 01:58:30;;;;;;;6.78;3.00;;;;;;;9.78;63.82;99809.56;4447841;32;20025;-79
2021/05/23 02:00:56;;;;;;;11.55;3.97;;;;;;;9.75;63.98;99808.47;4449696;32;20093;-79
2021/05/23 02:03:23;;;;;;;9.77;3.72;;;;;;;9.77;63.93;99793.94;4433413;32;20034;-79
2021/05/23 02:05:52;;;;;;;13.68;4.03;;;;;;;9.73;64.28;99802.50;4435134;32;20041;-79
2021/05/23 02:08:20;;;;;;;11.52;3.47;;;;;;;9.71;64.32;99801.38;4434176;32;20033;-79
2021/05/23 02:10:47;;;;;;;10.57;3.47;;;;;;;9.65;64.47;99789.97;4440610;32;20034;-79
2021/05/23 02:13:13;;;;;;;9.50;3.58;;;;;;;9.68;64.18;99788.25;4430815;32;20065;-79
2021/05/23 02:15:39;;;;;;;13.25;4.90;;;;;;;9.67;64.13;99787.47;4433686;32;20050;-79
2021/05/23 02:18:07;;;;;;;9.35;3.35;;;;;;;9.63;64.31;99792.44;4433565;32;20570;-79
2021/05/23 02:20:35;;;;;;;5.97;3.00;;;;;;;9.65;63.95;99789.97;4421044;32;20029;-80
2021/05/23 02:23:05;;;;;;;12.45;4.00;;;;;;;9.60;64.18;99796.16;4433510;32;20034;-79
2021/05/23 02:25:32;;;;;;;7.93;3.67;;;;;;;9.66;64.14;99793.53;4433101;32;20027;-79
2021/05/23 02:28:01;;;;;;;10.00;3.58;;;;;;;9.58;64.69;99800.66;4424710;32;20074;-80
2021/05/23 02:30:33;;;;;;;11.45;3.30;;;;;;;9.50;65.14;99788.88;4423867;32;20077;-79
2021/05/23 02:32:59;;;;;;;6.60;3.28;;;;;;;9.48;65.41;99796.19;4421569;32;20034;-79
2021/05/23 02:35:27;;;;;;;9.25;3.97;;;;;;;9.37;65.43;99779.72;4422251;32;20117;-80
2021/05/23 02:37:53;;;;;;;10.77;2.55;;;;;;;9.43;65.54;99797.56;4420149;32;20052;-79
2021/05/23 02:40:21;;;;;;;5.70;2.62;;;;;;;9.49;65.01;99798.56;4424794;32;20061;-80
2021/05/23 02:42:48;;;;;;;5.55;2.80;;;;;;;9.56;64.77;99792.69;4426424;32;20490;-79
2021/05/23 02:45:16;;;;;;;8.32;2.83;;;;;;;9.61;64.82;99788.50;4422016;32;20096;-79
2021/05/23 02:47:45;;;;;;;6.20;2.45;;;;;;;9.61;64.17;99797.72;4421387;32;20026;-80
2021/05/23 02:50:18;;;;;;;7.30;2.30;;;;;;;9.66;64.20;99794.31;4423240;32;20081;-79
2021/05/23 02:52:44;;;;;;;6.22;1.70;;;;;;;9.79;62.83;99794.28;4422373;32;20122;-79
2021/05/23 02:55:11;;;;;;;3.95;1.48;;;;;;;9.80;62.56;99793.84;4408431;32;20493;-79
2021/05/23 02:57:39;;;;;;;2.47;1.20;;;;;;;9.91;62.01;99790.63;4427594;32;20076;-80
2021/05/23 03:00:08;;;;;;;3.65;1.40;;;;;;;9.91;61.21;99793.44;4423944;32;20094;-80
2021/05/23 03:02:35;;;;;;;4.40;1.30;;;;;;;9.98;60.49;99790.38;4421720;32;20122;-79
2021/05/23 03:05:04;;;;;;;5.43;1.33;;;;;;;10.04;60.48;99791.38;4421020;32;20138;-80
2021/05/23 03:07:33;;;;;;;2.53;1.20;;;;;;;10.08;59.99;99800.47;4423373;32;20026;-79
2021/05/23 03:09:59;;;;;;;5.50;1.33;;;;;;;10.06;59.75;99786.88;4408702;32;20084;-79
2021/05/23 03:12:24;;;;;;;3.15;1.12;;;;;;;10.15;59.74;99791.75;4424057;32;20081;-79
2021/05/23 03:14:50;;;;;;;6.95;1.58;;;;;;;10.07;60.04;99801.72;4421757;32;20068;-79
2021/05/23 03:17:15;;;;;;;9.57;1.45;;;;;;;10.24;59.48;99796.69;4424140;32;20716;-79
2021/05/23 03:19:41;;;;;;;5.28;1.70;;;;;;;10.19;59.36;99792.44;4422970;32;20095;-78
2021/05/23 03:22:07;;;;;;;7.85;1.30;;;;;;;10.32;59.00;99789.53;4423768;32;20096;-80
2021/05/23 03:24:34;;;;;;;8.02;1.40;;;;;;;10.22;59.54;99790.72;4422113;32;20037;-80
2021/05/23 03:27:01;;;;;;;7.18;1.40;;;;;;;10.25;59.50;99784.97;4424159;32;20085;-79
2021/05/23 03:29:26;;;;;;;8.57;1.40;;;;;;;10.20;59.72;99798.81;4423631;32;20086;-80
2021/05/23 03:31:52;;;;;;;6.03;1.65;;;;;;;10.19;59.75;99788.81;4422452;32;20084;-79
2021/05/23 03:34:18;;;;;;;4.15;1.50;;;;;;;9.91;60.79;99791.41;4425740;32;20547;-80
2021/05/23 03:36:43;;;;;;;5.62;1.75;;;;;;;10.05;60.58;99776.06;4423437;32;20090;-80
2021/05/23 03:39:09;;;;;;;9.80;1.83;;;;;;;10.10;60.65;99787.50;4419756;32;20366;-79
2021/05/23 03:41:35;;;;;;;10.77;1.98;;;;;;;10.14;60.71;99778.97;4425486;32;20078;-81
2021/05/23 03:44:01;;;;;;;5.37;1.67;;;;;;;10.39;59.89;99792.06;4422219;32;20034;-79
2021/05/23 03:46:27;;;;;;;8.43;1.62;;;;;;;10.27;60.33;99790.16;4422685;32;20079;-80
2021/05/23 03:48:53;;;;;;;3.58;1.40;;;;;;;10.20;60.60;99779.94;4421500;32;20100;-79
2021/05/23 03:51:18;;;;;;;13.38;6.65;;;;;;;10.12;61.11;99778.63;4422072;32;20082;-80
2021/05/23 03:53:44;;;;;;;3.35;1.50;;;;;;;10.18;61.25;99779.59;4419558;32;20099;-80
2021/05/23 03:56:10;;;;;;;6.50;1.92;;;;;;;10.19;61.33;99772.75;4421900;32;20033;-79
2021/05/23 03:58:36;;;;;;;6.55;1.80;;;;;;;10.25;61.04;99770.91;4420445;32;20369;-80
2021/05/23 04:01:02;;;;;;;5.50;1.60;;;;;;;10.21;61.43;99777.91;4417744;32;20138;-80
2021/05/23 04:03:28;;;;;;;6.43;1.92;;;;;;;10.23;61.23;99772.59;4419615;32;20064;-80
2021/05/23 04:05:57;;;;;;;4.57;1.90;;;;;;;10.22;61.35;99774.66;4422572;32;20080;-80
2021/05/23 04:08:23;;;;;;;7.62;1.80;;;;;;;10.36;61.33;99776.91;4422778;32;20144;-80
2021/05/23 04:10:56;;;;;;;8.02;2.28;;;;;;;10.32;61.42;99769.84;4420632;32;20037;-80
2021/05/23 04:13:23;;;;;;;6.03;1.60;;;;;;;10.17;61.84;99778.03;4421235;32;20048;-80
2021/05/23 04:15:49;;;;;;;6.12;1.70;;;;;;;10.09;62.16;99769.09;4419149;32;20789;-80
2021/05/23 04:18:15;;;;;;;5.43;1.73;;;;;;;10.12;62.18;99767.38;4420687;32;20465;-80
2021/05/23 04:20:40;;;;;;;6.65;1.35;;;;;;;10.18;61.70;99765.53;4421246;32;20073;-81
2021/05/23 04:23:06;;;;;;;8.18;1.67;;;;;;;10.27;60.79;99764.84;4424558;32;20070;-81
2021/05/23 04:25:32;;;;;;;10.95;1.60;;;;;;;10.38;60.95;99774.44;4406877;32;20080;-81
2021/05/23 04:27:58;;;;;;;11.10;1.70;;;;;;;10.43;60.16;99770.22;4419427;32;20069;-81
2021/05/23 04:30:26;;;;;;;8.27;1.42;;;;;;;10.44;60.22;99763.34;4419706;32;20116;-81
2021/05/23 04:32:52;;;;;;;4.53;1.40;;;;;;;10.67;60.20;99772.06;4417724;32;20168;-80
2021/05/23 04:35:18;;;;;;;8.30;1.50;;;;;;;10.60;60.29;99769.53;4419304;32;20049;-81
2021/05/23 04:37:45;;;;;;;7.32;1.48;;;;;;;10.76;60.21;99774.13;4422281;32;20115;-79
2021/05/23 04:40:14;;;;;;;7.70;1.52;;;;;;;10.73;60.48;99775.03;4420602;32;20039;-79
2021/05/23 04:42:40;;;;;;;3.05;1.10;;;;;;;10.82;60.32;99780.72;4419109;32;20030;-80
2021/05/23 04:45:07;;;;;;;10.05;1.58;;;;;;;10.88;59.82;99765.56;4406692;32;20081;-81
2021/05/23 04:47:35;;;;;;;7.93;1.87;;;;;;;10.95;60.11;99761.69;4420269;32;20526;-81
2021/05/23 04:50:04;;;;;;;7.57;1.75;;;;;;;11.05;59.62;99778.13;4418803;32;20422;-81
2021/05/23 04:52:30;;;;;;;4.47;1.65;;;;;;;11.04;59.72;99776.56;4422284;32;20115;-80
2021/05/23 04:54:56;;;;;;;8.35;1.77;;;;;;;11.11;59.29;99776.25;4404647;32;20434;-80
2021/05/23 04:57:23;;;;;;;7.12;1.60;;;;;;;10.81;60.08;99768.69;4420296;32;20052;-80
2021/05/23 04:59:51;;;;;;;9.38;1.87;;;;;;;10.74;60.65;99773.81;4421750;32;20097;-80
2021/05/23 05:02:17;;;;;;;9.38;1.45;;;;;;;10.71;60.99;99769.12;4420405;32;20081;-81
2021/05/23 05:04:43;;;;;;;7.32;1.80;;;;;;;10.73;61.28;99763.78;4422873;32;20161;-80
2021/05/23 05:07:08;;;;;;;7.28;1.58;;;;;;;10.60;61.82;99763.09;4419666;32;20053;-80
2021/05/23 05:09:34;;;;;;;10.13;2.65;;;;;;;10.79;61.31;99771.16;4420220;32;20138;-80
2021/05/23 05:12:00;;;;;;;4.57;1.60;;;;;;;10.93;61.17;99762.16;4420714;32;20148;-79
2021/05/23 05:14:27;;;;;;;5.78;1.60;;;;;;;11.15;60.48;99759.22;4424069;32;20112;-78
2021/05/23 05:16:53;;;;;;;5.85;1.60;;;;;;;11.19;60.45;99765.50;4418219;32;20080;-78
2021/05/23 05:19:19;;;;;;;7.60;1.35;;;;;;;11.40;59.88;99758.97;4418192;32;20054;-78
2021/05/23 05:21:44;;;;;;;12.25;2.17;;;;;;;11.60;59.47;99767.75;4424568;32;20066;-81
2021/05/23 05:24:11;;;;;;;11.80;1.92;;;;;;;11.70;59.18;99761.69;4421038;32;20100;-81
2021/05/23 05:26:37;;;;;;;9.88;1.80;;;;;;;11.75;59.28;99765.88;4417400;32;20434;-81
2021/05/23 05:29:03;;;;;;;15.35;2.37;;;;;;;11.82;59.21;99766.34;4417245;32;20093;-81
2021/05/23 05:31:29;;;;;;;6.87;1.33;;;;;;;11.71;59.80;99756.81;4418682;32;20070;-81
2021/05/23 05:33:55;;;;;;;6.97;1.62;;;;;;;11.77;59.38;99760.56;4420679;32;20053;-81
2021/05/23 05:36:21;;;;;;;9.13;1.75;;;;;;;11.61;59.76;99769.31;4421825;32;20377;-81
2021/05/23 05:38:48;;;;;;;7.28;1.60;;;;;;;11.62;59.54;99759.63;4424961;32;20144;-80
2021/05/23 05:41:15;;;;;;;6.28;1.55;;;;;;;11.51;59.68;99762.13;4417381;32;20085;-80
2021/05/23 05:43:41;;;;;;;4.12;1.37;;;;;;;11.53;59.68;99762.41;4418776;32;20065;-80
2021/05/23 05:46:07;;;;;;;8.48;1.62;;;;;;;11.39;60.28;99769.44;4422510;32;20500;-80
2021/05/23 05:48:35;;;;;;;9.75;2.10;;;;;;;11.57;59.65;99746.91;4417603;32;20089;-81
2021/05/23 05:51:01;;;;;;;8.30;1.60;;;;;;;11.80;58.96;99754.78;4422915;32;20107;-80
2021/05/23 05:53:27;;;;;;;8.95;1.62;;;;;;;11.98;58.21;99746.31;4420254;32;21143;-81
2021/05/23 05:55:52;;;;;;;10.35;2.20;;;;;;;12.05;57.85;99759.28;4420892;32;20073;-81
2021/05/23 05:58:19;;;;;;;6.70;1.50;;;;;;;11.98;58.45;99749.13;4420282;32;20068;-78
2021/05/23 06:00:44;;;;;;;6.40;1.35;;;;;;;11.94;58.24;99748.50;4416988;32;20097;-79
2021/05/23 06:03:10;;;;;;;6.55;1.30;;;;;;;11.83;58.91;99741.78;4428786;32;20033;-78
2021/05/23 06:05:36;;;;;;;10.43;1.50;;;;;;;11.86;58.74;99735.19;4420321;32;20057;-78
2021/05/23 06:08:02;;;;;;;7.62;1.25;;;;;;;11.72;58.68;99742.25;4425204;32;20065;-81
2021/05/23 06:10:28;;;;;;;7.47;1.60;;;;;;;11.79;59.01;99743.97;4422552;32;20670;-81
2021/05/23 06:12:53;;;;;;;6.20;1.62;;;;;;;11.81;58.31;99745.06;4422681;32;20013;-80
2021/05/23 06:15:19;;;;;;;10.00;2.85;;;;;;;11.80;58.30;99751.97;4420964;32;20142;-81
2021/05/23 06:17:45;;;;;;;6.53;2.05;;;;;;;11.69;58.30;99740.38;4421495;32;20887;-81
2021/05/23 06:20:11;;;;;;;7.97;1.73;;;;;;;11.87;58.33;99745.22;4422864;32;20074;-81
2021/05/23 06:22:38;;;;;;;5.43;1.65;;;;;;;11.97;57.62;99746.78;4420684;32;20474;-81
2021/05/23 06:25:06;;;;;;;7.90;1.40;;;;;;;12.01;57.39;99750.22;4420782;32;20038;-81
2021/05/23 06:27:32;;;;;;;7.12;1.67;;;;;;;11.74;58.27;99761.50;4421340;32;20104;-81
2021/05/23 06:29:58;;;;;;;8.07;3.95;;;;;;;11.65;58.23;99772.78;4420737;32;20444;-81
2021/05/23 06:32:27;;;;;;;10.35;1.75;;;;;;;11.57;58.51;99769.47;4422563;32;20033;-81
2021/05/23 06:34:54;;;;;;;7.07;1.65;;;;;;;11.83;57.92;99756.66;4422972;32;20160;-79
2021/05/23 06:37:19;;;;;;;8.00;2.00;;;;;;;11.81;57.80;99753.53;4423530;32;20046;-80
2021/05/23 06:39:45;;;;;;;5.90;2.10;;;;;;;12.01;57.37;99767.13;4426258;32;20042;-79
2021/05/23 06:42:12;;;;;;;9.18;1.85;;;;;;;12.38;56.73;99765.03;4422062;32;20065;-79
2021/05/23 06:44:37;;;;;;;7.50;1.75;;;;;;;12.65;55.93;99770.59;4423165;32;20155;-80
2021/05/23 06:47:03;;;;;;;9.05;1.80;;;;;;;12.94;54.72;99763.09;4425726;32;20077;-79
2021/05/23 06:49:29;;;;;;;4.57;1.70;;;;;;;13.23;54.02;99759.66;4421249;32;21404;-79
2021/05/23 06:51:55;;;;;;;10.07;1.73;;;;;;;13.18;53.95;99763.13;4420833;32;20092;-79
2021/05/23 06:54:21;;;;;;;6.20;1.62;;;;;;;13.33;53.64;99756.31;4420555;32;20106;-79
2021/05/23 06:56:47;;;;;;;8.18;1.65;;;;;;;13.28;53.67;99753.34;4423948;32;20021;-79
2021/05/23 06:59:12;;;;;;;12.13;2.28;;;;;;;13.46;53.72;99756.84;4420509;32;20065;-80
2021/05/23 07:01:38;;;;;;;13.18;2.40;;;;;;;13.60;53.15;99750.44;4423510;32;20447;-79
2021/05/23 07:04:04;;;;;;;5.65;1.87;;;;;;;13.28;53.86;99742.03;4408019;32;20084;-79
2021/05/23 07:06:31;;;;;;;4.30;1.50;;;;;;;13.25;54.14;99746.62;4419663;32;20068;-79
2021/05/23 07:08:56;;;;;;;9.05;1.95;;;;;;;13.30;54.23;99745.19;4421642;32;20441;-79
2021/05/23 07:11:22;;;;;;;8.25;1.90;;;;;;;13.23;54.41;99746.31;4408515;32;20509;-79
2021/05/23 07:13:48;;;;;;;9.75;2.20;;;;;;;13.24;54.30;99742.25;4420880;32;20141;-79
2021/05/23 07:16:14;;;;;;;8.15;1.30;;;;;;;13.09;54.65;99743.41;4420652;32;20103;-80
2021/05/23 07:18:40;;;;;;;5.10;1.35;;;;;;;13.09;54.88;99743.41;4418579;32;20046;-79
2021/05/23 07:21:06;;;;;;;9.20;2.08;;;;;;;12.81;55.40;99744.78;4421667;32;20599;-79
2021/05/23 07:23:35;;;;;;;5.28;1.75;;;;;;;12.82;55.72;99744.31;4422146;32;20085;-79
2021/05/23 07:26:00;;;;;;;5.78;1.55;;;;;;;12.90;55.35;99758.88;4419099;32;20434;-79
2021/05/23 07:28:26;;;;;;;6.93;1.77;;;;;;;12.86;55.40;99741.34;4421845;32;20108;-79
2021/05/23 07:30:52;;;;;;;7.57;1.77;;;;;;;13.05;55.31;99746.44;4421800;32;20033;-79
2021/05/23 07:33:20;;;;;;;5.68;1.60;;;;;;;12.73;55.40;99749.25;4420726;32;20083;-80
2021/05/23 07:35:45;;;;;;;6.45;1.60;;;;;;;12.87;55.07;99748.53;4420344;32;20034;-79
2021/05/23 07:38:11;;;;;;;13.65;2.00;;;;;;;12.75;55.74;99746.72;4423900;32;20096;-79
2021/05/23 07:40:38;;;;;;;10.25;1.90;;;;;;;12.87;55.71;99751.34;4424747;32;20084;-80
2021/05/23 07:43:03;;;;;;;8.38;1.52;;;;;;;12.97;55.12;99759.31;4424266;32;20149;-78
2021/05/23 07:45:31;;;;;;;13.48;2.08;;;;;;;13.00;55.41;99746.28;4423983;32;20410;-79
2021/05/23 07:47:57;;;;;;;16.30;2.40;;;;;;;12.94;55.53;99748.19;4421653;32;20098;-79
2021/05/23 07:50:24;;;;;;;6.22;1.55;;;;;;;13.07;55.35;99754.44;4421741;32;20089;-79
2021/05/23 07:52:50;;;;;;;8.27;1.75;;;;;;;13.29;54.71;99752.88;4419641;32;20112;-80
2021/05/23 07:55:16;;;;;;;8.10;1.98;;;;;;;13.24;54.65;99752.75;4406667;32;20045;-80
2021/05/23 07:57:42;;;;;;;7.90;1.85;;;;;;;13.34;54.44;99759.91;4420423;32;20038;-79
2021/05/23 08:00:09;;;;;;;8.70;1.75;;;;;;;13.49;53.65;99746.59;4418684;32;20135;-79
2021/05/23 08:02:34;;;;;;;10.02;2.03;;;;;;;13.47;53.32;99737.84;4423099;32;20065;-79
2021/05/23 08:05:00;;;;;;;14.75;2.10;;;;;;;13.24;54.00;99753.53;4420692;32;20585;-79
2021/05/23 08:07:27;;;;;;;9.10;1.65;;;;;;;13.21;54.30;99751.69;4415149;32;21602;-79
2021/05/23 08:09:53;;;;;;;7.62;1.75;;;;;;;13.05;54.71;99743.63;4421019;32;20073;-79
2021/05/23 08:12:19;;;;;;;12.68;2.75;;;;;;;13.07;54.85;99746.72;4418727;32;20029;-79
2021/05/23 08:14:46;;;;;;;7.37;1.67;;;;;;;13.24;54.39;99749.91;4419427;32;20115;-79
2021/05/23 08:17:12;;;;;;;8.02;1.50;;;;;;;12.95;54.86;99763.88;4419560;32;20354;-80
2021/05/23 08:19:38;;;;;;;11.05;2.33;;;;;;;13.00;55.39;99755.56;4421959;32;20049;-79
2021/05/23 08:22:04;;;;;;;6.57;1.95;;;;;;;12.90;55.50;99751.19;4407948;32;20425;-79
2021/05/23 08:24:32;;;;;;;7.47;1.90;;;;;;;12.90;55.89;99753.22;4418877;32;20073;-80
2021/05/23 08:26:58;;;;;;;9.05;1.65;;;;;;;13.02;55.73;99749.44;4421087;32;20474;-79
2021/05/23 08:29:25;;;;;;;7.35;1.60;;;;;;;13.31;54.81;99763.69;4422998;32;20493;-79
2021/05/23 08:31:51;;;;;;;4.35;1.20;;;;;;;13.28;54.87;99759.00;4418361;32;20170;-79
2021/05/23 08:34:16;;;;;;;8.73;1.42;;;;;;;13.59;54.03;99759.41;4421897;32;20077;-80
2021/05/23 08:36:42;;;;;;;6.12;1.67;;;;;;;13.64;54.23;99767.22;4418647;32;20085;-80
2021/05/23 08:39:07;;;;;;;6.00;1.40;;;;;;;13.63;53.70;99754.38;4419044;32;20080;-80
2021/05/23 08:41:33;;;;;;;7.70;1.50;;;;;;;14.06;52.70;99757.25;4418963;32;20102;-79
2021/05/23 08:43:59;;;;;;;9.85;2.10;;;;;;;14.16;52.12;99760.81;4420478;32;20148;-79
2021/05/23 08:46:33;;;;;;;8.60;1.55;;;;;;;14.30;51.57;99759.28;4417015;32;20141;-79
2021/05/23 08:49:00;;;;;;;7.72;1.83;;;;;;;14.65;51.04;99755.25;4420312;32;20068;-80
2021/05/23 08:51:27;;;;;;;8.85;1.58;;;;;;;14.58;51.18;99769.81;4420521;32;20156;-80
2021/05/23 08:53:53;;;;;;;5.37;1.27;;;;;;;14.40;51.14;99758.69;4417890;32;20142;-79
2021/05/23 08:56:19;;;;;;;6.40;1.73;;;;;;;14.53;50.91;99758.38;4419008;32;20121;-79
2021/05/23 08:58:45;;;;;;;8.45;1.52;;;;;;;14.67;50.94;99760.44;4419614;32;20055;-80
2021/05/23 09:01:24;;;;;;;5.03;1.37;;;;;;;14.78;50.45;99760.59;4420186;32;20672;-80
2021/05/23 09:04:09;;;;;;;3.97;1.30;;;;;;;14.75;50.35;99758.75;4417778;32;20018;-80
2021/05/23 09:06:37;;;;;;;5.70;1.60;;;;;;;14.89;50.29;99758.75;4420761;32;20083;-80
2021/05/23 09:09:06;;;;;;;7.03;1.65;;;;;;;15.33;49.10;99753.72;4418470;32;20026;-80
2021/05/23 09:11:33;;;;;;;7.28;1.80;;;;;;;15.62;48.39;99747.16;4420122;32;20053;-80
2021/05/23 09:13:59;;;;;;;7.90;1.52;;;;;;;16.17;46.92;99755.53;4422225;32;20130;-79
2021/05/23 09:16:25;;;;;;;7.07;1.77;;;;;;;16.37;46.22;99744.88;4403189;32;20097;-80
2021/05/23 09:24:08;;;;;;;6.40;1.67;;;;;;;17.30;44.02;99746.88;3983531;32;15023083;-79
2021/05/23 09:26:43;;;;;;;7.22;1.20;;;;;;;17.30;44.02;99746.88;4436710;32;20394;-79
2021/05/23 09:31:57;;;;;;;6.07;1.90;;;;;;;16.36;45.72;99743.34;3985665;32;15024503;-79
2021/05/23 09:34:25;;;;;;;7.05;1.50;;;;;;;16.36;45.72;99743.34;4439657;32;20055;-79
2021/05/23 09:36:51;;;;;;;6.97;1.67;;;;;;;15.59;47.04;99734.75;4437288;32;20069;-79
2021/05/23 09:39:18;;;;;;;8.05;2.05;;;;;;;16.07;46.80;99737.09;4439260;32;20469;-80
2021/05/23 09:41:44;;;;;;;5.78;1.40;;;;;;;15.95;46.66;99733.34;4437678;32;20358;-80
2021/05/23 09:44:27;;;;;;;8.95;2.30;;;;;;;16.02;46.97;99728.00;4441097;32;20097;-79
2021/05/23 09:47:10;;;;;;;10.07;1.83;;;;;;;15.85;46.47;99731.97;4436312;32;20060;-79
2021/05/23 09:49:50;;;;;;;3.83;1.37;;;;;;;15.92;46.96;99742.84;4438854;32;20385;-80
2021/05/23 09:52:18;;;;;;;3.22;1.55;;;;;;;15.45;47.48;99744.13;4440422;32;20071;-80
2021/05/23 09:57:22;;;;;;;7.97;2.03;;;;;;;15.75;51.77;99748.38;3955946;32;15728573;-80
2021/05/23 10:00:09;;;;;;;9.55;2.53;;;;;;;15.75;51.77;99748.38;4427301;32;20154;-81
2021/05/23 10:05:27;;;;;;;5.20;1.48;;;;;;;15.46;50.13;99733.53;3977920;32;15022749;-81
2021/05/23 10:07:53;;;;;;;9.55;1.83;;;;;;;15.46;50.13;99733.53;4433219;32;20191;-78
2021/05/23 10:10:19;;;;;;;2.95;1.30;;;;;;;15.52;49.39;99721.00;4435269;32;20096;-80
2021/05/23 10:12:45;;;;;;;3.95;1.20;;;;;;;15.75;47.98;99728.50;4434188;32;20787;-79
2021/05/23 10:15:13;;;;;;;4.60;1.30;;;;;;;15.80;47.09;99724.94;4433547;32;20080;-80
2021/05/23 10:17:40;;;;;;;6.12;1.30;;;;;;;15.98;46.90;99725.91;4435920;32;20531;-79
2021/05/23 10:20:10;;;;;;;5.60;1.10;;;;;;;15.82;46.59;99711.03;4433449;32;20068;-80
2021/05/23 10:22:37;;;;;;;3.78;1.15;;;;;;;16.26;45.44;99707.88;4433931;32;20026;-80
2021/05/23 10:25:08;;;;;;;3.95;1.83;;;;;;;16.26;45.47;99710.69;4433554;32;20042;-80
2021/05/23 10:27:38;;;;;;;5.62;1.00;;;;;;;16.52;45.33;99702.97;4420465;32;20045;-80
2021/05/23 10:30:07;;;;;;;6.30;1.40;;;;;;;16.81;45.10;99702.66;4422458;32;20409;-79
2021/05/23 10:32:35;;;;;;;4.25;1.05;;;;;;;16.84;45.10;99707.34;4435252;32;20086;-79
2021/05/23 10:35:17;;;;;;;4.30;1.12;;;;;;;16.97;44.68;99704.06;4433150;32;20046;-79
2021/05/23 10:37:44;;;;;;;2.47;1.35;;;;;;;16.86;43.79;99696.25;4435621;32;20036;-79
2021/05/23 10:40:26;;;;;;;6.78;1.60;;;;;;;16.53;44.97;99687.47;4435686;32;20370;-80
2021/05/23 10:42:56;;;;;;;2.42;1.10;;;;;;;16.63;45.25;99697.34;4436154;32;20033;-80
2021/05/23 10:45:29;;;;;;;5.40;1.00;;;;;;;16.67;45.93;99688.63;4431441;32;20037;-79
2021/05/23 10:47:56;;;;;;;3.78;1.05;;;;;;;16.33;45.60;99698.13;4431686;32;20406;-79
2021/05/23 10:50:31;;;;;;;4.32;1.08;;;;;;;16.57;45.00;99690.09;4436955;32;20116;-79
2021/05/23 10:52:58;;;;;;;4.78;1.15;;;;;;;16.86;44.28;99692.62;4434572;32;20641;-80
2021/05/23 10:55:25;;;;;;;3.25;0.82;;;;;;;17.25;42.90;99696.47;4432308;32;20124;-80
2021/05/23 10:57:53;;;;;;;2.60;0.90;;;;;;;17.06;43.31;99681.87;4434925;32;20081;-79
2021/05/23 11:02:56;;;;;;;4.87;1.17;;;;;;;18.22;40.18;99675.84;3954879;32;15779655;-82
2021/05/23 11:05:27;;;;;;;6.70;1.02;;;;;;;18.22;40.18;99675.84;4434025;32;20304;-80
2021/05/23 11:08:02;;;;;;;5.55;1.10;;;;;;;17.95;39.97;99668.81;4436410;32;20061;-79
2021/05/23 11:10:45;;;;;;;5.05;1.40;;;;;;;18.47;39.67;99672.75;4434165;32;20136;-80
2021/05/23 11:13:15;;;;;;;4.62;0.90;;;;;;;17.76;40.56;99665.66;4436761;32;20026;-80
2021/05/23 11:15:48;;;;;;;4.72;1.17;;;;;;;17.73;40.62;99669.53;4436381;32;20065;-81
2021/05/23 11:18:25;;;;;;;6.83;1.10;;;;;;;17.59;40.94;99650.63;4433412;32;20073;-81
2021/05/23 11:26:25;;;;;;;2.80;0.90;;;;;;;17.97;41.78;99659.78;3997551;31;15019656;-80
2021/05/23 11:28:53;;;;;;;4.53;1.45;;;;;;;17.41;43.00;99647.41;4462559;32;20051;-80
2021/05/23 11:31:25;;;;;;;4.28;1.00;;;;;;;17.45;42.36;99650.81;4462785;32;20033;-80
2021/05/23 11:33:52;;;;;;;5.25;1.12;;;;;;;17.19;42.83;99647.34;4465032;32;20099;-80
2021/05/23 11:36:19;;;;;;;4.45;1.58;;;;;;;17.64;42.22;99644.16;4465260;32;20520;-80
2021/05/23 11:38:45;;;;;;;3.50;1.20;;;;;;;17.62;42.51;99638.19;4464206;32;20140;-80
2021/05/23 11:41:11;;;;;;;7.32;1.40;;;;;;;17.57;43.06;99638.97;4462367;32;20064;-80
2021/05/23 11:43:37;;;;;;;5.87;1.40;;;;;;;17.19;44.28;99625.38;4462491;32;20033;-80
2021/05/23 11:46:05;;;;;;;5.35;1.10;;;;;;;17.15;44.34;99626.91;4464319;32;20080;-80
2021/05/23 11:51:10;;;;;;;4.00;1.10;;;;;;;18.37;41.75;99605.94;3982640;32;15023027;-79
2021/05/23 11:56:16;;;;;;;5.73;1.10;;;;;;;19.04;39.91;99621.63;3999449;31;15015774;-82
2021/05/23 11:58:46;;;;;;;3.47;1.00;;;;;;;19.04;39.91;99621.63;4458452;32;20191;-82
2021/05/23 12:01:17;;;;;;;4.72;1.10;;;;;;;18.92;39.75;99620.09;4438613;32;20104;-81
2021/05/23 12:03:55;;;;;;;4.93;0.90;;;;;;;19.07;40.08;99597.75;4446818;32;20583;-82
2021/05/23 12:06:21;;;;;;;2.58;0.88;;;;;;;19.65;38.38;99592.81;4447919;32;20099;-80
2021/05/23 12:08:47;;;;;;;5.43;1.27;;;;;;;19.10;39.51;99595.94;4447522;32;20068;-80
2021/05/23 12:11:13;;;;;;;8.02;1.20;;;;;;;18.64;39.82;99587.25;4432940;32;21226;-79
2021/05/23 12:13:43;;;;;;;1.77;0.60;;;;;;;18.29;40.65;99578.50;4448120;32;20081;-80
2021/05/23 12:16:10;;;;;;;4.18;1.02;;;;;;;17.98;40.74;99575.91;4433415;32;20084;-80